sensor_id;sensor_type;location;lat;lon;timestamp;temperature;humidity
22747;DHT22;11540;52.130;5.648;2022-07-09T00:02:13;15.60;99.90
22747;DHT22;11540;52.130;5.648;2022-07-09T00:04:39;15.50;99.90
22747;DHT22;11540;52.130;5.648;2022-07-09T00:07:05;15.50;99.90
22747;DHT22;11540;52.130;5.648;2022-07-09T00:09:30;15.40;99.90
22747;DHT22;11540;52.130;5.648;2022-07-09T00:11:56;15.40;99.90
22747;DHT22;11540;52.130;5.648;2022-07-09T00:14:22;15.30;99.90
22747;DHT22;11540;52.130;5.648;2022-07-09T00:16:48;15.30;99.90
22747;DHT22;11540;52.130;5.648;2022-07-09T00:19:13;15.30;99.90
22747;DHT22;11540;52.130;5.648;2022-07-09T00:21:39;15.30;99.90
22747;DHT22;11540;52.130;5.648;2022-07-09T00:24:05;15.30;99.90
22747;DHT22;11540;52.130;5.648;2022-07-09T00:26:31;15.20;99.90
22747;DHT22;11540;52.130;5.648;2022-07-09T00:28:56;15.20;99.90
22747;DHT22;11540;52.130;5.648;2022-07-09T00:31:22;15.20;99.90
22747;DHT22;11540;52.130;5.648;2022-07-09T00:33:47;15.20;99.90
22747;DHT22;11540;52.130;5.648;2022-07-09T00:36:13;15.20;99.90
22747;DHT22;11540;52.130;5.648;2022-07-09T00:38:38;15.20;99.90
22747;DHT22;11540;52.130;5.648;2022-07-09T00:41:04;15.20;99.90
22747;DHT22;11540;52.130;5.648;2022-07-09T00:43:30;15.10;99.90
22747;DHT22;11540;52.130;5.648;2022-07-09T00:45:56;15.00;99.90
22747;DHT22;11540;52.130;5.648;2022-07-09T00:48:21;15.00;99.90
22747;DHT22;11540;52.130;5.648;2022-07-09T00:50:47;14.90;99.90
22747;DHT22;11540;52.130;5.648;2022-07-09T00:53:15;14.90;99.90
22747;DHT22;11540;52.130;5.648;2022-07-09T00:55:41;14.90;99.90
22747;DHT22;11540;52.130;5.648;2022-07-09T00:58:08;14.80;99.90
22747;DHT22;11540;52.130;5.648;2022-07-09T01:00:34;14.90;99.90
22747;DHT22;11540;52.130;5.648;2022-07-09T01:03:00;14.80;99.90
22747;DHT22;11540;52.130;5.648;2022-07-09T01:05:25;14.70;99.90
22747;DHT22;11540;52.130;5.648;2022-07-09T01:07:51;14.70;99.90
22747;DHT22;11540;52.130;5.648;2022-07-09T01:10:17;14.60;99.90
22747;DHT22;11540;52.130;5.648;2022-07-09T01:12:44;14.60;99.90
22747;DHT22;11540;52.130;5.648;2022-07-09T01:15:10;14.60;99.90
22747;DHT22;11540;52.130;5.648;2022-07-09T01:17:39;14.50;99.90
22747;DHT22;11540;52.130;5.648;2022-07-09T01:20:05;14.40;99.90
22747;DHT22;11540;52.130;5.648;2022-07-09T01:22:32;14.30;99.90
22747;DHT22;11540;52.130;5.648;2022-07-09T01:24:59;14.20;99.90
22747;DHT22;11540;52.130;5.648;2022-07-09T01:27:25;14.10;99.90
22747;DHT22;11540;52.130;5.648;2022-07-09T01:29:51;14.20;99.90
22747;DHT22;11540;52.130;5.648;2022-07-09T01:32:16;14.10;99.90
22747;DHT22;11540;52.130;5.648;2022-07-09T01:34:42;14.10;99.90
22747;DHT22;11540;52.130;5.648;2022-07-09T01:37:07;14.10;99.90
22747;DHT22;11540;52.130;5.648;2022-07-09T01:39:33;14.20;99.90
22747;DHT22;11540;52.130;5.648;2022-07-09T01:41:58;14.30;99.90
22747;DHT22;11540;52.130;5.648;2022-07-09T01:44:24;14.30;99.90
22747;DHT22;11540;52.130;5.648;2022-07-09T01:46:49;14.30;99.90
22747;DHT22;11540;52.130;5.648;2022-07-09T01:49:15;14.30;99.90
22747;DHT22;11540;52.130;5.648;2022-07-09T01:51:40;14.30;99.90
22747;DHT22;11540;52.130;5.648;2022-07-09T01:54:06;14.40;99.90
22747;DHT22;11540;52.130;5.648;2022-07-09T01:56:31;14.50;99.90
22747;DHT22;11540;52.130;5.648;2022-07-09T01:58:57;14.50;99.90
22747;DHT22;11540;52.130;5.648;2022-07-09T02:01:23;14.60;99.90
22747;DHT22;11540;52.130;5.648;2022-07-09T02:03:48;14.50;99.90
22747;DHT22;11540;52.130;5.648;2022-07-09T02:06:14;14.40;99.90
22747;DHT22;11540;52.130;5.648;2022-07-09T02:08:39;14.40;99.90
22747;DHT22;11540;52.130;5.648;2022-07-09T02:11:05;14.30;99.90
22747;DHT22;11540;52.130;5.648;2022-07-09T02:13:30;14.30;99.90
22747;DHT22;11540;52.130;5.648;2022-07-09T02:15:56;14.20;99.90
22747;DHT22;11540;52.130;5.648;2022-07-09T02:18:21;14.10;99.90
22747;DHT22;11540;52.130;5.648;2022-07-09T02:20:47;14.10;99.90
22747;DHT22;11540;52.130;5.648;2022-07-09T02:23:12;14.10;99.90
22747;DHT22;11540;52.130;5.648;2022-07-09T02:25:38;14.10;99.90
22747;DHT22;11540;52.130;5.648;2022-07-09T02:28:03;14.10;99.90
22747;DHT22;11540;52.130;5.648;2022-07-09T02:30:29;14.10;99.90
22747;DHT22;11540;52.130;5.648;2022-07-09T02:32:55;14.10;99.90
22747;DHT22;11540;52.130;5.648;2022-07-09T02:35:20;14.20;99.90
22747;DHT22;11540;52.130;5.648;2022-07-09T02:37:45;14.20;99.90
22747;DHT22;11540;52.130;5.648;2022-07-09T02:40:11;14.20;99.90
22747;DHT22;11540;52.130;5.648;2022-07-09T02:42:36;14.20;99.90
22747;DHT22;11540;52.130;5.648;2022-07-09T02:45:03;14.20;99.90
22747;DHT22;11540;52.130;5.648;2022-07-09T02:47:29;14.20;99.90
22747;DHT22;11540;52.130;5.648;2022-07-09T02:49:54;14.20;99.90
22747;DHT22;11540;52.130;5.648;2022-07-09T02:52:21;14.20;99.90
22747;DHT22;11540;52.130;5.648;2022-07-09T02:54:47;14.20;99.90
22747;DHT22;11540;52.130;5.648;2022-07-09T02:57:12;14.30;99.90
22747;DHT22;11540;52.130;5.648;2022-07-09T02:59:38;14.30;99.90
22747;DHT22;11540;52.130;5.648;2022-07-09T03:02:03;14.50;99.90
22747;DHT22;11540;52.130;5.648;2022-07-09T03:04:29;14.60;99.90
22747;DHT22;11540;52.130;5.648;2022-07-09T03:06:55;14.60;99.90
22747;DHT22;11540;52.130;5.648;2022-07-09T03:09:20;14.60;99.90
22747;DHT22;11540;52.130;5.648;2022-07-09T03:11:45;14.70;99.90
22747;DHT22;11540;52.130;5.648;2022-07-09T03:14:11;14.70;99.90
22747;DHT22;11540;52.130;5.648;2022-07-09T03:16:36;14.80;99.90
22747;DHT22;11540;52.130;5.648;2022-07-09T03:19:02;14.80;99.90
22747;DHT22;11540;52.130;5.648;2022-07-09T03:21:27;14.80;99.90
22747;DHT22;11540;52.130;5.648;2022-07-09T03:23:53;14.80;99.90
22747;DHT22;11540;52.130;5.648;2022-07-09T03:26:18;14.80;99.90
22747;DHT22;11540;52.130;5.648;2022-07-09T03:28:43;14.80;99.90
22747;DHT22;11540;52.130;5.648;2022-07-09T03:31:09;14.90;99.90
22747;DHT22;11540;52.130;5.648;2022-07-09T03:33:34;15.00;99.90
22747;DHT22;11540;52.130;5.648;2022-07-09T03:36:00;15.00;99.90
22747;DHT22;11540;52.130;5.648;2022-07-09T03:38:25;15.10;99.90
22747;DHT22;11540;52.130;5.648;2022-07-09T03:40:51;15.10;99.90
22747;DHT22;11540;52.130;5.648;2022-07-09T03:43:18;15.20;99.90
22747;DHT22;11540;52.130;5.648;2022-07-09T03:45:43;15.30;99.90
22747;DHT22;11540;52.130;5.648;2022-07-09T03:48:09;15.30;99.90
22747;DHT22;11540;52.130;5.648;2022-07-09T03:50:34;15.20;99.90
22747;DHT22;11540;52.130;5.648;2022-07-09T03:53:00;15.20;99.90
22747;DHT22;11540;52.130;5.648;2022-07-09T03:55:25;15.20;99.90
22747;DHT22;11540;52.130;5.648;2022-07-09T03:57:51;15.20;99.90
22747;DHT22;11540;52.130;5.648;2022-07-09T04:00:16;15.20;99.90
22747;DHT22;11540;52.130;5.648;2022-07-09T04:02:42;15.20;99.90
22747;DHT22;11540;52.130;5.648;2022-07-09T04:05:08;15.20;99.90
22747;DHT22;11540;52.130;5.648;2022-07-09T04:07:34;15.30;99.90
22747;DHT22;11540;52.130;5.648;2022-07-09T04:09:59;15.20;99.90
22747;DHT22;11540;52.130;5.648;2022-07-09T04:12:25;15.20;99.90
22747;DHT22;11540;52.130;5.648;2022-07-09T04:14:50;15.20;99.90
22747;DHT22;11540;52.130;5.648;2022-07-09T04:17:16;15.10;99.90
22747;DHT22;11540;52.130;5.648;2022-07-09T04:19:41;15.10;99.90
22747;DHT22;11540;52.130;5.648;2022-07-09T04:22:07;15.10;99.90
22747;DHT22;11540;52.130;5.648;2022-07-09T04:24:32;15.20;99.90
22747;DHT22;11540;52.130;5.648;2022-07-09T04:26:58;15.20;99.90
22747;DHT22;11540;52.130;5.648;2022-07-09T04:29:23;15.30;99.90
22747;DHT22;11540;52.130;5.648;2022-07-09T04:31:49;15.30;99.90
22747;DHT22;11540;52.130;5.648;2022-07-09T04:34:15;15.30;99.90
22747;DHT22;11540;52.130;5.648;2022-07-09T04:36:41;15.30;99.90
22747;DHT22;11540;52.130;5.648;2022-07-09T04:39:06;15.30;99.90
22747;DHT22;11540;52.130;5.648;2022-07-09T04:41:32;15.30;99.90
22747;DHT22;11540;52.130;5.648;2022-07-09T04:43:57;15.40;99.90
22747;DHT22;11540;52.130;5.648;2022-07-09T04:46:22;15.40;99.90
22747;DHT22;11540;52.130;5.648;2022-07-09T04:48:48;15.50;99.90
22747;DHT22;11540;52.130;5.648;2022-07-09T04:51:14;15.60;99.90
22747;DHT22;11540;52.130;5.648;2022-07-09T04:53:39;15.60;99.90
22747;DHT22;11540;52.130;5.648;2022-07-09T04:56:05;15.70;99.90
22747;DHT22;11540;52.130;5.648;2022-07-09T04:58:32;15.70;99.90
22747;DHT22;11540;52.130;5.648;2022-07-09T05:00:57;15.80;99.90
22747;DHT22;11540;52.130;5.648;2022-07-09T05:03:23;15.90;99.90
22747;DHT22;11540;52.130;5.648;2022-07-09T05:05:48;16.00;99.90
22747;DHT22;11540;52.130;5.648;2022-07-09T05:08:13;16.00;99.90
22747;DHT22;11540;52.130;5.648;2022-07-09T05:10:39;16.10;99.90
22747;DHT22;11540;52.130;5.648;2022-07-09T05:13:04;16.20;99.90
22747;DHT22;11540;52.130;5.648;2022-07-09T05:15:30;16.40;99.90
22747;DHT22;11540;52.130;5.648;2022-07-09T05:17:58;16.50;99.90
22747;DHT22;11540;52.130;5.648;2022-07-09T05:20:23;16.50;99.90
22747;DHT22;11540;52.130;5.648;2022-07-09T05:22:49;16.60;99.90
22747;DHT22;11540;52.130;5.648;2022-07-09T05:25:15;16.60;99.90
22747;DHT22;11540;52.130;5.648;2022-07-09T05:27:44;16.60;99.90
22747;DHT22;11540;52.130;5.648;2022-07-09T05:30:10;16.70;99.90
22747;DHT22;11540;52.130;5.648;2022-07-09T05:32:35;16.70;99.90
22747;DHT22;11540;52.130;5.648;2022-07-09T05:35:01;16.80;99.90
22747;DHT22;11540;52.130;5.648;2022-07-09T05:37:26;16.90;99.90
22747;DHT22;11540;52.130;5.648;2022-07-09T05:39:52;16.90;99.90
22747;DHT22;11540;52.130;5.648;2022-07-09T05:42:17;17.00;99.90
22747;DHT22;11540;52.130;5.648;2022-07-09T05:44:42;17.10;99.90
22747;DHT22;11540;52.130;5.648;2022-07-09T05:47:08;17.20;99.90
22747;DHT22;11540;52.130;5.648;2022-07-09T05:49:33;17.40;99.90
22747;DHT22;11540;52.130;5.648;2022-07-09T05:51:59;17.40;99.90
22747;DHT22;11540;52.130;5.648;2022-07-09T05:54:24;17.40;99.90
22747;DHT22;11540;52.130;5.648;2022-07-09T05:56:50;17.50;99.90
22747;DHT22;11540;52.130;5.648;2022-07-09T05:59:16;17.50;99.90
22747;DHT22;11540;52.130;5.648;2022-07-09T06:01:41;17.50;99.90
22747;DHT22;11540;52.130;5.648;2022-07-09T06:04:08;17.50;99.90
22747;DHT22;11540;52.130;5.648;2022-07-09T06:06:34;17.60;99.90
22747;DHT22;11540;52.130;5.648;2022-07-09T06:08:59;17.70;99.90
22747;DHT22;11540;52.130;5.648;2022-07-09T06:11:25;17.80;99.90
22747;DHT22;11540;52.130;5.648;2022-07-09T06:13:50;18.20;99.90
22747;DHT22;11540;52.130;5.648;2022-07-09T06:16:16;18.60;99.90
22747;DHT22;11540;52.130;5.648;2022-07-09T06:18:41;18.80;99.90
22747;DHT22;11540;52.130;5.648;2022-07-09T06:21:07;18.80;99.90
22747;DHT22;11540;52.130;5.648;2022-07-09T06:23:32;18.80;99.90
22747;DHT22;11540;52.130;5.648;2022-07-09T06:25:57;18.70;99.90
22747;DHT22;11540;52.130;5.648;2022-07-09T06:28:23;18.80;99.90
22747;DHT22;11540;52.130;5.648;2022-07-09T06:30:48;18.90;99.90
22747;DHT22;11540;52.130;5.648;2022-07-09T06:33:14;18.90;99.90
22747;DHT22;11540;52.130;5.648;2022-07-09T06:35:39;18.80;99.90
22747;DHT22;11540;52.130;5.648;2022-07-09T06:38:05;18.80;99.90
22747;DHT22;11540;52.130;5.648;2022-07-09T06:40:30;18.80;99.90
22747;DHT22;11540;52.130;5.648;2022-07-09T06:42:56;18.80;99.90
22747;DHT22;11540;52.130;5.648;2022-07-09T06:45:21;19.00;99.90
22747;DHT22;11540;52.130;5.648;2022-07-09T06:47:48;19.20;99.90
22747;DHT22;11540;52.130;5.648;2022-07-09T06:50:13;19.40;99.90
22747;DHT22;11540;52.130;5.648;2022-07-09T06:52:39;19.80;99.90
22747;DHT22;11540;52.130;5.648;2022-07-09T06:55:05;20.10;99.90
22747;DHT22;11540;52.130;5.648;2022-07-09T06:57:30;20.30;99.90
22747;DHT22;11540;52.130;5.648;2022-07-09T06:59:56;20.50;99.90
22747;DHT22;11540;52.130;5.648;2022-07-09T07:02:22;20.50;99.90
22747;DHT22;11540;52.130;5.648;2022-07-09T07:04:47;20.60;99.90
22747;DHT22;11540;52.130;5.648;2022-07-09T07:07:13;20.90;99.90
22747;DHT22;11540;52.130;5.648;2022-07-09T07:09:38;21.10;99.90
22747;DHT22;11540;52.130;5.648;2022-07-09T07:12:04;21.10;99.90
22747;DHT22;11540;52.130;5.648;2022-07-09T07:14:29;20.70;99.90
22747;DHT22;11540;52.130;5.648;2022-07-09T07:16:55;20.60;99.90
22747;DHT22;11540;52.130;5.648;2022-07-09T07:19:20;20.80;99.90
22747;DHT22;11540;52.130;5.648;2022-07-09T07:21:49;21.20;99.90
22747;DHT22;11540;52.130;5.648;2022-07-09T07:24:14;21.40;99.90
22747;DHT22;11540;52.130;5.648;2022-07-09T07:26:40;21.30;99.90
22747;DHT22;11540;52.130;5.648;2022-07-09T07:29:06;21.30;99.90
22747;DHT22;11540;52.130;5.648;2022-07-09T07:31:31;21.40;99.90
22747;DHT22;11540;52.130;5.648;2022-07-09T07:33:57;21.40;99.90
22747;DHT22;11540;52.130;5.648;2022-07-09T07:36:24;21.30;99.90
22747;DHT22;11540;52.130;5.648;2022-07-09T07:38:50;21.40;99.90
22747;DHT22;11540;52.130;5.648;2022-07-09T07:41:16;21.60;99.90
22747;DHT22;11540;52.130;5.648;2022-07-09T07:43:42;21.90;99.90
22747;DHT22;11540;52.130;5.648;2022-07-09T07:46:07;22.00;99.90
22747;DHT22;11540;52.130;5.648;2022-07-09T07:48:33;22.10;99.90
22747;DHT22;11540;52.130;5.648;2022-07-09T07:51:01;22.00;99.90
22747;DHT22;11540;52.130;5.648;2022-07-09T07:53:26;22.00;99.90
22747;DHT22;11540;52.130;5.648;2022-07-09T07:55:52;22.20;99.90
22747;DHT22;11540;52.130;5.648;2022-07-09T07:58:17;22.20;99.90
22747;DHT22;11540;52.130;5.648;2022-07-09T08:00:43;22.20;99.90
22747;DHT22;11540;52.130;5.648;2022-07-09T08:03:08;22.00;99.90
22747;DHT22;11540;52.130;5.648;2022-07-09T08:05:34;21.90;99.90
22747;DHT22;11540;52.130;5.648;2022-07-09T08:07:59;21.90;99.90
22747;DHT22;11540;52.130;5.648;2022-07-09T08:10:24;22.00;99.90
22747;DHT22;11540;52.130;5.648;2022-07-09T08:12:51;22.10;99.90
22747;DHT22;11540;52.130;5.648;2022-07-09T08:15:16;22.10;99.90
22747;DHT22;11540;52.130;5.648;2022-07-09T08:17:42;22.10;99.90
22747;DHT22;11540;52.130;5.648;2022-07-09T08:20:08;22.10;99.90
22747;DHT22;11540;52.130;5.648;2022-07-09T08:22:33;22.00;99.90
22747;DHT22;11540;52.130;5.648;2022-07-09T08:24:59;21.80;99.90
22747;DHT22;11540;52.130;5.648;2022-07-09T08:27:24;21.80;99.90
22747;DHT22;11540;52.130;5.648;2022-07-09T08:29:50;21.80;99.90
22747;DHT22;11540;52.130;5.648;2022-07-09T08:32:15;21.90;99.90
22747;DHT22;11540;52.130;5.648;2022-07-09T08:34:41;22.00;99.90
22747;DHT22;11540;52.130;5.648;2022-07-09T08:37:06;22.30;99.90
22747;DHT22;11540;52.130;5.648;2022-07-09T08:39:32;22.50;99.90
22747;DHT22;11540;52.130;5.648;2022-07-09T08:41:58;22.50;99.90
22747;DHT22;11540;52.130;5.648;2022-07-09T08:44:24;22.20;99.90
22747;DHT22;11540;52.130;5.648;2022-07-09T08:46:51;22.20;99.90
22747;DHT22;11540;52.130;5.648;2022-07-09T08:49:16;22.20;99.90
22747;DHT22;11540;52.130;5.648;2022-07-09T08:51:43;22.10;99.90
22747;DHT22;11540;52.130;5.648;2022-07-09T08:54:08;22.10;99.90
22747;DHT22;11540;52.130;5.648;2022-07-09T08:56:34;21.80;99.90
22747;DHT22;11540;52.130;5.648;2022-07-09T08:58:59;21.80;99.90
22747;DHT22;11540;52.130;5.648;2022-07-09T09:01:25;21.90;99.90
22747;DHT22;11540;52.130;5.648;2022-07-09T09:03:50;21.90;99.90
22747;DHT22;11540;52.130;5.648;2022-07-09T09:06:16;22.00;99.90
22747;DHT22;11540;52.130;5.648;2022-07-09T09:08:46;22.00;99.90
22747;DHT22;11540;52.130;5.648;2022-07-09T09:11:15;21.90;99.90
22747;DHT22;11540;52.130;5.648;2022-07-09T09:13:43;22.00;99.90
22747;DHT22;11540;52.130;5.648;2022-07-09T09:16:10;22.10;99.90
22747;DHT22;11540;52.130;5.648;2022-07-09T09:18:36;22.10;99.90
22747;DHT22;11540;52.130;5.648;2022-07-09T09:21:05;22.30;99.90
22747;DHT22;11540;52.130;5.648;2022-07-09T09:26:24;22.40;99.90
22747;DHT22;11540;52.130;5.648;2022-07-09T09:28:51;22.60;99.90
22747;DHT22;11540;52.130;5.648;2022-07-09T09:31:21;22.90;99.90
22747;DHT22;11540;52.130;5.648;2022-07-09T09:33:47;22.90;99.90
22747;DHT22;11540;52.130;5.648;2022-07-09T09:36:26;22.90;99.90
22747;DHT22;11540;52.130;5.648;2022-07-09T09:38:51;22.80;99.90
22747;DHT22;11540;52.130;5.648;2022-07-09T09:41:21;22.90;99.90
22747;DHT22;11540;52.130;5.648;2022-07-09T09:43:47;22.90;99.90
22747;DHT22;11540;52.130;5.648;2022-07-09T09:46:12;23.00;99.90
22747;DHT22;11540;52.130;5.648;2022-07-09T09:48:38;22.70;99.90
22747;DHT22;11540;52.130;5.648;2022-07-09T09:51:03;22.70;99.90
22747;DHT22;11540;52.130;5.648;2022-07-09T09:53:30;22.80;99.90
22747;DHT22;11540;52.130;5.648;2022-07-09T09:55:56;22.90;99.90
22747;DHT22;11540;52.130;5.648;2022-07-09T09:58:22;22.90;99.90
22747;DHT22;11540;52.130;5.648;2022-07-09T10:00:48;22.70;99.90
22747;DHT22;11540;52.130;5.648;2022-07-09T10:03:13;22.70;99.90
22747;DHT22;11540;52.130;5.648;2022-07-09T10:05:40;22.50;99.90
22747;DHT22;11540;52.130;5.648;2022-07-09T10:08:06;22.50;99.90
22747;DHT22;11540;52.130;5.648;2022-07-09T10:10:31;22.80;99.90
22747;DHT22;11540;52.130;5.648;2022-07-09T10:12:56;23.00;99.90
22747;DHT22;11540;52.130;5.648;2022-07-09T10:15:25;23.50;99.90
22747;DHT22;11540;52.130;5.648;2022-07-09T10:17:54;23.60;99.90
22747;DHT22;11540;52.130;5.648;2022-07-09T10:20:29;23.80;99.90
22747;DHT22;11540;52.130;5.648;2022-07-09T10:22:57;24.30;99.90
22747;DHT22;11540;52.130;5.648;2022-07-09T10:25:23;24.70;99.90
22747;DHT22;11540;52.130;5.648;2022-07-09T10:27:52;24.40;99.90
22747;DHT22;11540;52.130;5.648;2022-07-09T10:30:30;25.00;99.90
22747;DHT22;11540;52.130;5.648;2022-07-09T10:33:34;25.30;99.90
22747;DHT22;11540;52.130;5.648;2022-07-09T10:36:12;25.30;99.90
22747;DHT22;11540;52.130;5.648;2022-07-09T10:38:38;25.60;99.90
22747;DHT22;11540;52.130;5.648;2022-07-09T10:41:04;25.10;99.90
22747;DHT22;11540;52.130;5.648;2022-07-09T10:43:40;24.80;99.90
22747;DHT22;11540;52.130;5.648;2022-07-09T10:46:11;24.70;99.90
22747;DHT22;11540;52.130;5.648;2022-07-09T10:48:40;25.00;99.90
22747;DHT22;11540;52.130;5.648;2022-07-09T10:51:05;24.80;99.90
22747;DHT22;11540;52.130;5.648;2022-07-09T10:53:31;24.60;99.90
22747;DHT22;11540;52.130;5.648;2022-07-09T10:55:56;24.60;99.90
22747;DHT22;11540;52.130;5.648;2022-07-09T10:58:24;25.20;99.90
22747;DHT22;11540;52.130;5.648;2022-07-09T11:00:58;25.50;99.90
22747;DHT22;11540;52.130;5.648;2022-07-09T11:03:28;25.60;99.90
22747;DHT22;11540;52.130;5.648;2022-07-09T11:05:54;25.90;99.90
22747;DHT22;11540;52.130;5.648;2022-07-09T11:08:20;25.60;99.90
22747;DHT22;11540;52.130;5.648;2022-07-09T11:10:46;25.30;99.90
22747;DHT22;11540;52.130;5.648;2022-07-09T11:13:11;25.10;99.90
22747;DHT22;11540;52.130;5.648;2022-07-09T11:15:38;25.60;99.90
22747;DHT22;11540;52.130;5.648;2022-07-09T11:18:04;26.00;99.90
22747;DHT22;11540;52.130;5.648;2022-07-09T11:20:36;26.30;99.90
22747;DHT22;11540;52.130;5.648;2022-07-09T11:23:02;26.30;99.90
22747;DHT22;11540;52.130;5.648;2022-07-09T11:25:28;26.10;99.90
22747;DHT22;11540;52.130;5.648;2022-07-09T11:27:54;25.90;99.90
22747;DHT22;11540;52.130;5.648;2022-07-09T11:30:19;25.30;99.90
22747;DHT22;11540;52.130;5.648;2022-07-09T11:32:45;25.20;99.90
22747;DHT22;11540;52.130;5.648;2022-07-09T11:35:11;25.60;99.90
22747;DHT22;11540;52.130;5.648;2022-07-09T11:37:37;26.30;99.90
22747;DHT22;11540;52.130;5.648;2022-07-09T11:40:03;27.00;99.90
22747;DHT22;11540;52.130;5.648;2022-07-09T11:42:29;27.20;99.90
22747;DHT22;11540;52.130;5.648;2022-07-09T11:44:55;26.30;99.90
22747;DHT22;11540;52.130;5.648;2022-07-09T11:47:30;25.90;99.90
22747;DHT22;11540;52.130;5.648;2022-07-09T11:49:56;25.60;99.90
22747;DHT22;11540;52.130;5.648;2022-07-09T11:52:29;26.20;99.90
22747;DHT22;11540;52.130;5.648;2022-07-09T11:57:20;26.80;99.90
22747;DHT22;11540;52.130;5.648;2022-07-09T11:59:47;25.60;99.90
22747;DHT22;11540;52.130;5.648;2022-07-09T12:02:21;24.80;99.90
22747;DHT22;11540;52.130;5.648;2022-07-09T12:04:47;25.00;99.90
22747;DHT22;11540;52.130;5.648;2022-07-09T12:07:12;25.40;99.90
22747;DHT22;11540;52.130;5.648;2022-07-09T12:09:38;26.10;99.90
22747;DHT22;11540;52.130;5.648;2022-07-09T12:12:03;26.80;99.90
22747;DHT22;11540;52.130;5.648;2022-07-09T12:14:29;26.10;99.90
22747;DHT22;11540;52.130;5.648;2022-07-09T12:16:54;25.20;99.90
22747;DHT22;11540;52.130;5.648;2022-07-09T12:19:20;24.80;99.90
22747;DHT22;11540;52.130;5.648;2022-07-09T12:21:45;25.50;99.90
22747;DHT22;11540;52.130;5.648;2022-07-09T12:24:11;26.70;99.90
22747;DHT22;11540;52.130;5.648;2022-07-09T12:26:37;27.50;99.90
22747;DHT22;11540;52.130;5.648;2022-07-09T12:29:02;27.70;99.90
22747;DHT22;11540;52.130;5.648;2022-07-09T12:31:28;26.90;99.90
22747;DHT22;11540;52.130;5.648;2022-07-09T12:33:53;26.40;99.90
22747;DHT22;11540;52.130;5.648;2022-07-09T12:36:18;25.90;99.90
22747;DHT22;11540;52.130;5.648;2022-07-09T12:38:44;26.20;99.90
22747;DHT22;11540;52.130;5.648;2022-07-09T12:41:09;27.30;99.90
22747;DHT22;11540;52.130;5.648;2022-07-09T12:43:35;27.20;99.90
22747;DHT22;11540;52.130;5.648;2022-07-09T12:46:00;26.40;99.90
22747;DHT22;11540;52.130;5.648;2022-07-09T12:48:26;26.30;99.90
22747;DHT22;11540;52.130;5.648;2022-07-09T12:50:52;26.70;99.90
22747;DHT22;11540;52.130;5.648;2022-07-09T12:53:17;27.50;99.90
22747;DHT22;11540;52.130;5.648;2022-07-09T12:55:42;27.70;99.90
22747;DHT22;11540;52.130;5.648;2022-07-09T12:58:08;27.40;99.90
22747;DHT22;11540;52.130;5.648;2022-07-09T13:00:33;27.20;99.90
22747;DHT22;11540;52.130;5.648;2022-07-09T13:02:59;27.40;99.90
22747;DHT22;11540;52.130;5.648;2022-07-09T13:05:24;27.20;99.90
22747;DHT22;11540;52.130;5.648;2022-07-09T13:07:50;27.10;99.90
22747;DHT22;11540;52.130;5.648;2022-07-09T13:10:15;27.50;99.90
22747;DHT22;11540;52.130;5.648;2022-07-09T13:12:41;27.40;99.90
22747;DHT22;11540;52.130;5.648;2022-07-09T13:15:06;27.60;99.90
22747;DHT22;11540;52.130;5.648;2022-07-09T13:17:32;27.50;99.90
22747;DHT22;11540;52.130;5.648;2022-07-09T13:19:57;27.30;99.90
22747;DHT22;11540;52.130;5.648;2022-07-09T13:22:23;27.60;99.90
22747;DHT22;11540;52.130;5.648;2022-07-09T13:24:48;28.50;99.90
22747;DHT22;11540;52.130;5.648;2022-07-09T13:27:14;28.10;99.90
22747;DHT22;11540;52.130;5.648;2022-07-09T13:29:39;27.80;99.90
22747;DHT22;11540;52.130;5.648;2022-07-09T13:32:05;27.80;99.90
22747;DHT22;11540;52.130;5.648;2022-07-09T13:34:31;28.10;99.90
22747;DHT22;11540;52.130;5.648;2022-07-09T13:36:56;27.60;99.90
22747;DHT22;11540;52.130;5.648;2022-07-09T13:39:22;27.20;99.90
22747;DHT22;11540;52.130;5.648;2022-07-09T13:41:47;26.80;99.90
22747;DHT22;11540;52.130;5.648;2022-07-09T13:44:12;26.60;99.90
22747;DHT22;11540;52.130;5.648;2022-07-09T13:46:38;26.60;99.90
22747;DHT22;11540;52.130;5.648;2022-07-09T13:49:03;26.80;99.90
22747;DHT22;11540;52.130;5.648;2022-07-09T13:51:29;27.50;99.90
22747;DHT22;11540;52.130;5.648;2022-07-09T13:53:54;27.50;99.90
22747;DHT22;11540;52.130;5.648;2022-07-09T13:56:20;26.70;99.90
22747;DHT22;11540;52.130;5.648;2022-07-09T13:58:45;27.20;99.90
22747;DHT22;11540;52.130;5.648;2022-07-09T14:01:10;27.50;99.90
22747;DHT22;11540;52.130;5.648;2022-07-09T14:03:36;27.20;99.90
22747;DHT22;11540;52.130;5.648;2022-07-09T14:06:02;27.00;99.90
22747;DHT22;11540;52.130;5.648;2022-07-09T14:08:27;27.10;99.90
22747;DHT22;11540;52.130;5.648;2022-07-09T14:10:53;27.50;99.90
22747;DHT22;11540;52.130;5.648;2022-07-09T14:13:26;27.60;99.90
22747;DHT22;11540;52.130;5.648;2022-07-09T14:15:55;28.20;99.90
22747;DHT22;11540;52.130;5.648;2022-07-09T14:18:21;28.70;99.90
22747;DHT22;11540;52.130;5.648;2022-07-09T14:20:46;28.80;99.90
22747;DHT22;11540;52.130;5.648;2022-07-09T14:23:12;29.10;99.90
22747;DHT22;11540;52.130;5.648;2022-07-09T14:25:37;29.40;99.90
22747;DHT22;11540;52.130;5.648;2022-07-09T14:28:03;29.60;99.90
22747;DHT22;11540;52.130;5.648;2022-07-09T14:30:28;29.60;99.90
22747;DHT22;11540;52.130;5.648;2022-07-09T14:32:54;29.90;99.90
22747;DHT22;11540;52.130;5.648;2022-07-09T14:35:20;29.90;99.90
22747;DHT22;11540;52.130;5.648;2022-07-09T14:37:46;29.00;99.90
22747;DHT22;11540;52.130;5.648;2022-07-09T14:40:11;29.10;99.90
22747;DHT22;11540;52.130;5.648;2022-07-09T14:42:37;28.60;99.90
22747;DHT22;11540;52.130;5.648;2022-07-09T14:45:03;28.00;99.90
22747;DHT22;11540;52.130;5.648;2022-07-09T14:47:29;27.30;99.90
22747;DHT22;11540;52.130;5.648;2022-07-09T14:49:54;26.60;99.90
22747;DHT22;11540;52.130;5.648;2022-07-09T14:52:20;26.50;99.90
22747;DHT22;11540;52.130;5.648;2022-07-09T14:54:46;26.70;99.90
22747;DHT22;11540;52.130;5.648;2022-07-09T14:57:11;27.50;99.90
22747;DHT22;11540;52.130;5.648;2022-07-09T14:59:37;28.20;99.90
22747;DHT22;11540;52.130;5.648;2022-07-09T15:02:03;29.20;99.90
22747;DHT22;11540;52.130;5.648;2022-07-09T15:04:28;30.00;99.90
22747;DHT22;11540;52.130;5.648;2022-07-09T15:06:54;29.70;99.90
22747;DHT22;11540;52.130;5.648;2022-07-09T15:09:19;29.30;99.90
22747;DHT22;11540;52.130;5.648;2022-07-09T15:11:45;27.50;99.90
22747;DHT22;11540;52.130;5.648;2022-07-09T15:14:10;27.30;99.90
22747;DHT22;11540;52.130;5.648;2022-07-09T15:16:35;26.50;99.90
22747;DHT22;11540;52.130;5.648;2022-07-09T15:19:01;26.10;99.90
22747;DHT22;11540;52.130;5.648;2022-07-09T15:21:26;25.70;99.90
22747;DHT22;11540;52.130;5.648;2022-07-09T15:23:54;25.30;99.90
22747;DHT22;11540;52.130;5.648;2022-07-09T15:26:20;24.70;99.90
22747;DHT22;11540;52.130;5.648;2022-07-09T15:28:45;24.70;99.90